createdAt,value
2019-02-24T00:02:08.485Z,4.81
2019-02-24T00:04:37.312Z,4.79
2019-02-24T00:07:07.111Z,4.81
2019-02-24T00:09:35.940Z,4.81
2019-02-24T00:12:04.790Z,4.75
2019-02-24T00:14:33.648Z,4.69
2019-02-24T00:17:03.246Z,4.64
2019-02-24T00:19:32.747Z,4.59
2019-02-24T00:22:02.226Z,4.56
2019-02-24T00:24:31.663Z,4.50
2019-02-24T00:27:00.429Z,4.45
2019-02-24T00:29:29.842Z,4.41
2019-02-24T00:31:58.636Z,4.38
2019-02-24T00:34:28.548Z,4.36
2019-02-24T00:36:57.346Z,4.36
2019-02-24T00:39:26.258Z,4.35
2019-02-24T00:41:55.821Z,4.31
2019-02-24T00:44:24.610Z,4.31
2019-02-24T00:46:53.414Z,4.28
2019-02-24T00:49:22.215Z,4.27
2019-02-24T00:51:51.024Z,4.35
2019-02-24T00:54:19.811Z,4.37
2019-02-24T00:56:49.171Z,4.38
2019-02-24T00:59:18.044Z,4.39
2019-02-24T01:01:46.838Z,4.39
2019-02-24T01:04:16.236Z,4.41
2019-02-24T01:06:45.566Z,4.38
2019-02-24T01:09:14.364Z,4.41
2019-02-24T01:11:43.148Z,4.40
2019-02-24T01:14:11.971Z,4.34
2019-02-24T01:16:40.803Z,4.27
2019-02-24T01:19:09.669Z,4.21
2019-02-24T01:21:38.463Z,4.17
2019-02-24T01:24:07.252Z,4.13
2019-02-24T01:26:36.154Z,4.09
2019-02-24T01:29:05.001Z,4.08
2019-02-24T01:31:33.770Z,4.07
2019-02-24T01:34:02.562Z,4.04
2019-02-24T01:36:31.452Z,4.02
2019-02-24T01:39:00.245Z,3.99
2019-02-24T01:41:29.505Z,3.96
2019-02-24T01:43:58.389Z,3.92
2019-02-24T01:46:27.239Z,3.86
2019-02-24T01:48:55.998Z,3.83
2019-02-24T01:51:24.789Z,3.81
2019-02-24T01:53:54.259Z,3.79
2019-02-24T01:56:23.072Z,3.75
2019-02-24T01:58:51.891Z,3.69
2019-02-24T02:01:21.431Z,3.65
2019-02-24T02:03:50.251Z,3.62
2019-02-24T02:06:19.125Z,3.58
2019-02-24T02:08:50.972Z,3.54
2019-02-24T02:11:19.838Z,3.52
2019-02-24T02:13:48.654Z,3.47
2019-02-24T02:16:17.562Z,3.43
2019-02-24T02:18:47.070Z,3.37
2019-02-24T02:21:15.881Z,3.34
2019-02-24T02:23:44.879Z,3.30
2019-02-24T02:26:13.673Z,3.27
2019-02-24T02:28:44.216Z,3.24
2019-02-24T02:31:11.288Z,3.19
2019-02-24T02:33:40.196Z,3.14
2019-02-24T02:36:08.995Z,3.10
2019-02-24T02:38:37.866Z,3.07
2019-02-24T02:41:06.676Z,3.02
2019-02-24T02:43:35.860Z,3.00
2019-02-24T02:46:04.661Z,2.99
2019-02-24T02:48:34.445Z,2.97
2019-02-24T02:51:03.319Z,2.97
2019-02-24T02:53:33.178Z,2.99
2019-02-24T02:56:02.476Z,2.98
2019-02-24T02:58:31.272Z,2.96
2019-02-24T03:01:00.059Z,2.93
2019-02-24T03:03:28.870Z,2.90
2019-02-24T03:06:06.788Z,2.88
2019-02-24T03:08:54.194Z,2.88
2019-02-24T03:11:23.058Z,2.87
2019-02-24T03:13:51.867Z,2.86
2019-02-24T03:16:26.047Z,2.83
2019-02-24T03:18:54.892Z,2.82
2019-02-24T03:21:23.679Z,2.79
2019-02-24T03:23:52.513Z,2.79
2019-02-24T03:26:21.277Z,2.80
2019-02-24T03:28:50.167Z,2.79
2019-02-24T03:31:19.613Z,2.73
2019-02-24T03:33:49.615Z,2.71
2019-02-24T03:36:18.539Z,2.67
2019-02-24T03:38:47.595Z,2.65
2019-02-24T03:41:16.375Z,2.65
2019-02-24T03:43:45.814Z,2.63
2019-02-24T03:46:14.996Z,2.60
2019-02-24T03:48:44.007Z,2.57
2019-02-24T03:51:12.798Z,2.56
2019-02-24T03:53:41.587Z,2.57
2019-02-24T03:56:10.424Z,2.57
2019-02-24T03:58:40.294Z,2.56
2019-02-24T04:01:09.816Z,2.56
2019-02-24T04:03:39.119Z,2.53
2019-02-24T04:06:07.966Z,2.51
2019-02-24T04:08:36.783Z,2.51
2019-02-24T04:11:05.576Z,2.51
2019-02-24T04:13:34.541Z,2.49
2019-02-24T04:16:04.393Z,2.44
2019-02-24T04:18:33.550Z,2.41
2019-02-24T04:21:02.370Z,2.36
2019-02-24T04:23:31.222Z,2.36
2019-02-24T04:26:00.079Z,2.39
2019-02-24T04:28:28.882Z,2.39
2019-02-24T04:30:57.738Z,2.38
2019-02-24T04:33:27.493Z,2.36
2019-02-24T04:35:56.393Z,2.33
2019-02-24T04:38:25.201Z,2.30
2019-02-24T04:40:54.615Z,2.32
2019-02-24T04:43:23.474Z,2.39
2019-02-24T04:45:52.279Z,2.35
2019-02-24T04:48:21.070Z,2.33
2019-02-24T04:50:50.585Z,2.29
2019-02-24T04:53:20.602Z,2.30
2019-02-24T04:55:49.881Z,2.35
2019-02-24T04:58:18.772Z,2.40
2019-02-24T05:00:48.306Z,2.44
2019-02-24T05:03:17.103Z,2.44
2019-02-24T05:05:45.907Z,2.46
2019-02-24T05:08:14.709Z,2.47
2019-02-24T05:10:43.517Z,2.45
2019-02-24T05:13:12.305Z,2.42
2019-02-24T05:15:42.308Z,2.41
2019-02-24T05:18:11.097Z,2.36
2019-02-24T05:20:40.154Z,2.30
2019-02-24T05:23:10.233Z,2.26
2019-02-24T05:25:39.869Z,2.20
2019-02-24T05:28:08.735Z,2.16
2019-02-24T05:30:38.118Z,2.12
2019-02-24T05:33:06.975Z,2.08
2019-02-24T05:35:35.790Z,2.13
2019-02-24T05:38:05.418Z,2.12
2019-02-24T05:40:34.291Z,2.09
2019-02-24T05:43:03.116Z,2.06
2019-02-24T05:45:31.887Z,2.03
2019-02-24T05:48:00.775Z,2.00
2019-02-24T05:50:29.579Z,1.99
2019-02-24T05:52:58.425Z,1.97
2019-02-24T05:55:27.247Z,1.97
2019-02-24T05:57:56.057Z,1.93
2019-02-24T06:00:25.521Z,1.89
2019-02-24T06:02:55.827Z,1.85
2019-02-24T06:05:24.647Z,1.80
2019-02-24T06:07:53.449Z,1.77
2019-02-24T06:10:22.265Z,1.76
2019-02-24T06:12:51.104Z,1.73
2019-02-24T06:15:19.892Z,1.69
2019-02-24T06:17:48.751Z,1.68
2019-02-24T06:20:17.537Z,1.66
2019-02-24T06:22:46.330Z,1.64
2019-02-24T06:25:15.177Z,1.63
2019-02-24T06:27:43.964Z,1.63
2019-02-24T06:30:12.758Z,1.62
2019-02-24T06:32:41.621Z,1.61
2019-02-24T06:35:11.247Z,1.59
2019-02-24T06:37:42.163Z,1.59
2019-02-24T06:40:11.039Z,1.57
2019-02-24T06:42:39.875Z,1.59
2019-02-24T06:45:08.996Z,1.60
2019-02-24T06:47:38.906Z,1.61
2019-02-24T06:50:08.039Z,1.62
2019-02-24T06:52:36.802Z,1.64
2019-02-24T06:55:06.386Z,1.64
2019-02-24T06:57:37.330Z,1.65
2019-02-24T07:00:13.824Z,1.65
2019-02-24T07:02:36.703Z,1.68
2019-02-24T07:05:05.682Z,1.69
2019-02-24T07:07:35.232Z,1.72
2019-02-24T07:10:04.073Z,1.73
2019-02-24T07:12:33.203Z,1.76
2019-02-24T07:15:02.008Z,1.79
2019-02-24T07:17:30.913Z,1.82
2019-02-24T07:19:59.733Z,1.85
2019-02-24T07:22:28.521Z,1.88
2019-02-24T07:24:57.443Z,1.91
2019-02-24T07:27:26.268Z,1.95
2019-02-24T07:29:55.068Z,1.98
2019-02-24T07:32:23.861Z,2.05
2019-02-24T07:34:52.663Z,2.11
2019-02-24T07:37:21.450Z,2.18
2019-02-24T07:39:50.320Z,2.26
2019-02-24T07:42:19.119Z,2.34
2019-02-24T07:44:47.939Z,2.41
2019-02-24T07:47:16.765Z,2.48
2019-02-24T07:49:45.592Z,2.58
2019-02-24T07:52:14.515Z,2.65
2019-02-24T07:54:43.457Z,2.74
2019-02-24T07:57:12.232Z,2.87
2019-02-24T07:59:41.055Z,3.03
2019-02-24T08:02:09.919Z,3.19
2019-02-24T08:04:38.723Z,3.32
2019-02-24T08:07:07.519Z,3.51
2019-02-24T08:09:36.376Z,3.72
2019-02-24T08:12:05.196Z,3.94
2019-02-24T08:14:34.070Z,4.43
2019-02-24T08:17:02.859Z,4.94
2019-02-24T08:19:32.648Z,5.11
2019-02-24T08:22:01.494Z,5.28
2019-02-24T08:24:30.326Z,5.61
2019-02-24T08:26:59.143Z,5.85
2019-02-24T08:29:27.956Z,6.00
2019-02-24T08:31:57.552Z,6.16
2019-02-24T08:34:26.378Z,6.30
2019-02-24T08:36:56.560Z,6.39
2019-02-24T08:39:25.395Z,6.47
2019-02-24T08:41:54.175Z,6.62
2019-02-24T08:44:23.480Z,6.69
2019-02-24T08:46:53.203Z,6.73
2019-02-24T08:49:21.996Z,6.90
2019-02-24T08:51:50.864Z,7.13
2019-02-24T08:54:19.675Z,7.39
2019-02-24T08:56:48.484Z,7.57
2019-02-24T08:59:18.118Z,7.75
2019-02-24T09:01:46.908Z,7.92
2019-02-24T09:04:15.772Z,8.13
2019-02-24T09:06:44.611Z,8.26
2019-02-24T09:09:13.424Z,8.20
2019-02-24T09:11:42.222Z,8.33
2019-02-24T09:14:11.032Z,8.39
2019-02-24T09:16:39.854Z,8.26
2019-02-24T09:19:08.639Z,8.37
2019-02-24T09:21:37.518Z,8.37
2019-02-24T09:24:07.264Z,8.62
2019-02-24T09:26:36.111Z,8.87
2019-02-24T09:29:06.450Z,8.95
2019-02-24T09:31:35.635Z,9.07
2019-02-24T09:34:04.442Z,9.37
2019-02-24T09:36:34.461Z,9.68
2019-02-24T09:39:03.274Z,9.79
2019-02-24T09:41:33.202Z,9.94
2019-02-24T09:44:02.006Z,10.03
2019-02-24T09:46:31.872Z,9.98
2019-02-24T09:49:00.654Z,10.10
2019-02-24T09:51:29.470Z,10.15
2019-02-24T09:53:58.324Z,10.40
2019-02-24T09:56:28.391Z,10.74
2019-02-24T09:58:57.587Z,11.01
2019-02-24T10:01:26.426Z,11.14
2019-02-24T10:03:55.498Z,11.19
2019-02-24T10:06:25.279Z,11.08
2019-02-24T10:08:54.809Z,10.98
2019-02-24T10:11:24.213Z,11.00
2019-02-24T10:13:53.005Z,11.19
2019-02-24T10:16:21.909Z,11.29
2019-02-24T10:18:50.691Z,11.58
2019-02-24T10:21:19.516Z,11.57
2019-02-24T10:23:48.318Z,11.99
2019-02-24T10:26:17.156Z,12.39
2019-02-24T10:28:47.747Z,12.58
2019-02-24T10:31:19.853Z,12.60
2019-02-24T10:33:44.018Z,12.57
2019-02-24T10:36:12.826Z,12.45
2019-02-24T10:38:41.655Z,12.65
2019-02-24T10:41:10.590Z,12.43
2019-02-24T10:43:39.376Z,12.50
2019-02-24T10:46:08.169Z,12.55
2019-02-24T10:48:36.994Z,12.89
2019-02-24T10:51:05.843Z,12.82
2019-02-24T10:53:35.677Z,12.83
2019-02-24T10:56:04.834Z,12.75
2019-02-24T10:58:34.922Z,12.92
2019-02-24T11:01:03.949Z,13.17
2019-02-24T11:03:32.820Z,13.15
2019-02-24T11:06:01.628Z,13.32
2019-02-24T11:08:31.056Z,13.78
2019-02-24T11:11:00.764Z,14.35
2019-02-24T11:13:30.233Z,14.68
2019-02-24T11:15:59.062Z,14.51
2019-02-24T11:18:28.480Z,14.65
2019-02-24T11:20:57.275Z,14.51
2019-02-24T11:23:26.651Z,14.98
2019-02-24T11:25:56.067Z,15.03
2019-02-24T11:28:25.562Z,14.67
2019-02-24T11:30:54.424Z,14.83
2019-02-24T11:33:23.385Z,15.20
2019-02-24T11:35:52.175Z,15.39
2019-02-24T11:38:23.487Z,15.22
2019-02-24T11:40:52.305Z,15.31
2019-02-24T11:43:22.355Z,15.80
2019-02-24T11:45:53.028Z,15.89
2019-02-24T11:48:21.871Z,16.03
2019-02-24T11:50:51.250Z,16.22
2019-02-24T11:53:20.063Z,15.99
2019-02-24T11:55:50.937Z,16.25
2019-02-24T11:58:19.725Z,16.31
2019-02-24T12:00:48.616Z,16.24
2019-02-24T12:03:17.973Z,16.11
2019-02-24T12:05:46.827Z,15.99
2019-02-24T12:08:15.641Z,16.23
2019-02-24T12:10:44.415Z,16.25
2019-02-24T12:13:14.213Z,16.42
2019-02-24T12:15:43.632Z,16.60
2019-02-24T12:18:12.410Z,16.67
2019-02-24T12:20:41.224Z,16.40
2019-02-24T12:23:10.011Z,16.03
2019-02-24T12:25:40.659Z,15.90
2019-02-24T12:28:09.428Z,15.90
2019-02-24T12:30:38.287Z,16.08
2019-02-24T12:33:07.168Z,16.28
2019-02-24T12:35:35.928Z,16.09
2019-02-24T12:38:04.750Z,16.04
2019-02-24T12:40:33.574Z,16.22
2019-02-24T12:43:02.796Z,16.26
2019-02-24T12:45:32.296Z,16.10
2019-02-24T12:48:01.132Z,15.95
2019-02-24T12:50:29.949Z,15.95
2019-02-24T12:52:59.273Z,15.78
2019-02-24T12:55:28.694Z,15.65
2019-02-24T12:57:57.627Z,15.68
2019-02-24T13:00:26.477Z,15.65
2019-02-24T13:02:56.452Z,15.70
2019-02-24T13:05:25.403Z,15.57
2019-02-24T13:07:54.220Z,15.33
2019-02-24T13:10:23.368Z,15.50
2019-02-24T13:12:54.900Z,15.52
2019-02-24T13:15:23.694Z,15.59
2019-02-24T13:17:52.556Z,15.73
2019-02-24T13:20:23.377Z,16.16
2019-02-24T13:22:52.173Z,16.58
2019-02-24T13:25:20.989Z,16.68
2019-02-24T13:27:50.405Z,16.48
2019-02-24T13:30:20.169Z,16.42
2019-02-24T13:32:49.734Z,16.31
2019-02-24T13:35:18.533Z,16.15
2019-02-24T13:37:47.347Z,16.26
2019-02-24T13:40:17.947Z,16.34
2019-02-24T13:42:46.856Z,16.31
2019-02-24T13:45:16.673Z,16.27
2019-02-24T13:47:47.732Z,16.29
2019-02-24T13:50:16.560Z,16.42
2019-02-24T13:52:45.387Z,16.66
2019-02-24T13:55:14.176Z,16.70
2019-02-24T13:57:43.669Z,16.74
2019-02-24T14:00:14.648Z,16.88
2019-02-24T14:02:43.498Z,16.78
2019-02-24T14:05:12.376Z,16.73
2019-02-24T14:07:41.161Z,16.82
2019-02-24T14:10:10.610Z,16.84
2019-02-24T14:12:39.420Z,16.99
2019-02-24T14:15:08.807Z,17.04
2019-02-24T14:17:38.580Z,16.81
2019-02-24T14:20:08.922Z,16.57
2019-02-24T14:22:37.754Z,16.50
2019-02-24T14:25:06.822Z,16.40
2019-02-24T14:27:35.694Z,16.37
2019-02-24T14:30:07.630Z,16.35
2019-02-24T14:32:35.117Z,16.36
2019-02-24T14:35:04.615Z,16.49
2019-02-24T14:37:34.136Z,16.62
2019-02-24T14:40:03.027Z,16.62
2019-02-24T14:42:32.805Z,16.63
2019-02-24T14:45:01.620Z,16.59
2019-02-24T14:47:30.487Z,16.42
2019-02-24T14:50:02.085Z,16.22
2019-02-24T14:52:30.876Z,16.11
2019-02-24T14:54:59.734Z,15.96
2019-02-24T14:57:32.996Z,15.90
2019-02-24T15:00:02.556Z,15.95
2019-02-24T15:02:31.602Z,15.91
2019-02-24T15:05:00.521Z,15.84
2019-02-24T15:07:29.302Z,15.76
2019-02-24T15:09:58.189Z,15.73
2019-02-24T15:12:27.918Z,15.71
2019-02-24T15:14:56.730Z,15.70
2019-02-24T15:17:26.370Z,15.77
2019-02-24T15:19:57.287Z,15.76
2019-02-24T15:22:26.099Z,15.79
2019-02-24T15:24:58.514Z,15.80
2019-02-24T15:27:27.316Z,15.68
2019-02-24T15:29:56.155Z,15.62
2019-02-24T15:32:25.763Z,15.62
2019-02-24T15:34:54.625Z,15.58
2019-02-24T15:37:23.563Z,15.53
2019-02-24T15:39:53.051Z,15.49
2019-02-24T15:42:21.971Z,15.40
2019-02-24T15:44:50.793Z,15.31
2019-02-24T15:47:19.603Z,15.24
2019-02-24T15:49:48.377Z,15.15
2019-02-24T15:52:17.172Z,15.04
2019-02-24T15:54:45.975Z,14.98
2019-02-24T15:57:15.507Z,14.90
2019-02-24T15:59:44.915Z,14.81
2019-02-24T16:02:15.429Z,14.74
2019-02-24T16:04:44.202Z,14.64
2019-02-24T16:07:13.420Z,14.58
2019-02-24T16:09:42.208Z,14.50
2019-02-24T16:12:11.027Z,14.45
2019-02-24T16:14:39.804Z,14.38
2019-02-24T16:17:08.664Z,14.34
2019-02-24T16:19:37.428Z,14.32
2019-02-24T16:22:06.334Z,14.27
2019-02-24T16:24:35.780Z,14.24
2019-02-24T16:27:07.491Z,14.19
2019-02-24T16:29:36.291Z,14.17
2019-02-24T16:32:05.131Z,14.11
2019-02-24T16:34:34.083Z,14.07
2019-02-24T16:37:02.936Z,14.02
2019-02-24T16:39:31.719Z,13.98
2019-02-24T16:42:03.599Z,13.92
2019-02-24T16:44:32.717Z,13.87
2019-02-24T16:47:01.488Z,13.79
2019-02-24T16:49:31.291Z,13.73
2019-02-24T16:52:00.114Z,13.65
2019-02-24T16:54:28.974Z,13.61
2019-02-24T16:57:04.745Z,13.54
2019-02-24T16:59:27.505Z,13.47
2019-02-24T17:01:57.272Z,13.40
2019-02-24T17:04:26.058Z,13.34
2019-02-24T17:06:55.419Z,13.27
2019-02-24T17:09:24.762Z,13.20
2019-02-24T17:11:54.063Z,13.16
2019-02-24T17:14:24.839Z,13.12
2019-02-24T17:16:51.758Z,13.07
2019-02-24T17:19:21.172Z,13.01
2019-02-24T17:21:50.052Z,12.94
2019-02-24T17:24:18.852Z,12.85
2019-02-24T17:26:47.688Z,12.80
2019-02-24T17:29:16.505Z,12.73
2019-02-24T17:31:45.462Z,12.64
2019-02-24T17:34:14.283Z,12.55
2019-02-24T17:36:43.076Z,12.48
2019-02-24T17:39:13.167Z,12.40
2019-02-24T17:41:43.299Z,12.31
2019-02-24T17:44:12.115Z,12.26
2019-02-24T17:46:40.927Z,12.20
2019-02-24T17:49:11.208Z,12.13
2019-02-24T17:51:40.077Z,12.08
2019-02-24T17:54:08.934Z,12.02
2019-02-24T17:56:37.809Z,12.16
2019-02-24T17:59:08.714Z,11.98
2019-02-24T18:01:37.886Z,11.89
2019-02-24T18:04:06.742Z,11.82
2019-02-24T18:06:35.632Z,11.74
2019-02-24T18:09:05.355Z,11.67
2019-02-24T18:11:34.188Z,11.60
2019-02-24T18:14:03.010Z,11.53
2019-02-24T18:16:31.839Z,11.51
2019-02-24T18:19:01.217Z,11.46
2019-02-24T18:21:30.032Z,11.41
2019-02-24T18:23:58.894Z,11.36
2019-02-24T18:26:27.782Z,11.31
2019-02-24T18:28:59.192Z,11.28
2019-02-24T18:31:27.983Z,11.23
2019-02-24T18:33:57.613Z,11.19
2019-02-24T18:36:26.421Z,11.14
2019-02-24T18:38:56.575Z,11.09
2019-02-24T18:41:25.494Z,11.03
2019-02-24T18:43:54.318Z,10.94
2019-02-24T18:46:23.697Z,10.88
2019-02-24T18:48:52.515Z,10.83
2019-02-24T18:51:22.027Z,10.78
2019-02-24T18:53:50.819Z,10.72
2019-02-24T18:56:19.648Z,10.69
2019-02-24T18:58:48.931Z,10.66
2019-02-24T19:01:17.770Z,10.61
2019-02-24T19:03:46.572Z,10.57
2019-02-24T19:06:15.593Z,10.53
2019-02-24T19:08:44.456Z,10.49
2019-02-24T19:11:13.261Z,10.47
2019-02-24T19:13:43.374Z,10.43
2019-02-24T19:16:12.202Z,10.37
2019-02-24T19:18:41.084Z,10.36
2019-02-24T19:21:10.128Z,10.28
2019-02-24T19:23:39.876Z,10.12
2019-02-24T19:26:09.283Z,10.06
2019-02-24T19:28:38.083Z,10.04
2019-02-24T19:31:06.900Z,10.03
2019-02-24T19:33:35.700Z,10.01
2019-02-24T19:36:05.213Z,9.98
2019-02-24T19:38:34.609Z,9.97
2019-02-24T19:41:03.386Z,9.97
2019-02-24T19:43:32.202Z,9.96
2019-02-24T19:46:01.007Z,9.93
2019-02-24T19:48:29.826Z,9.92
2019-02-24T19:50:58.739Z,9.89
2019-02-24T19:53:27.554Z,9.88
2019-02-24T19:56:00.497Z,9.85
2019-02-24T19:58:29.331Z,9.84
2019-02-24T20:01:01.176Z,9.82
2019-02-24T20:03:30.396Z,9.80
2019-02-24T20:05:59.165Z,9.78
2019-02-24T20:08:28.556Z,9.76
2019-02-24T20:10:59.155Z,9.72
2019-02-24T20:13:28.514Z,9.69
2019-02-24T20:15:57.338Z,9.65
2019-02-24T20:18:26.216Z,9.62
2019-02-24T20:20:55.083Z,9.60
2019-02-24T20:23:23.884Z,9.56
2019-02-24T20:25:52.739Z,9.52
2019-02-24T20:28:22.190Z,9.49
2019-02-24T20:30:51.037Z,9.46
2019-02-24T20:33:19.900Z,9.44
2019-02-24T20:35:49.214Z,9.41
2019-02-24T20:38:19.086Z,9.38
2019-02-24T20:40:47.947Z,9.37
2019-02-24T20:43:17.323Z,9.35
2019-02-24T20:45:47.589Z,9.32
2019-02-24T20:48:16.414Z,9.29
2019-02-24T20:50:45.248Z,9.26
2019-02-24T20:53:16.241Z,9.22
2019-02-24T20:55:45.028Z,9.16
2019-02-24T20:58:13.826Z,9.08
2019-02-24T21:00:42.623Z,9.01
2019-02-24T21:03:11.420Z,8.96
2019-02-24T21:05:40.242Z,8.92
2019-02-24T21:08:09.027Z,8.88
2019-02-24T21:10:37.867Z,8.85
2019-02-24T21:13:06.683Z,8.81
2019-02-24T21:15:35.511Z,8.75
2019-02-24T21:18:04.399Z,8.72
2019-02-24T21:20:33.305Z,8.69
2019-02-24T21:23:02.134Z,8.65
2019-02-24T21:25:30.941Z,8.62
2019-02-24T21:27:59.745Z,8.61
2019-02-24T21:30:29.264Z,8.59
2019-02-24T21:32:58.623Z,8.54
2019-02-24T21:35:27.399Z,8.48
2019-02-24T21:37:56.180Z,8.46
2019-02-24T21:40:25.012Z,8.42
2019-02-24T21:42:53.806Z,8.38
2019-02-24T21:45:22.904Z,8.34
2019-02-24T21:47:52.741Z,8.33
2019-02-24T21:50:21.550Z,8.36
2019-02-24T21:52:50.348Z,8.37
2019-02-24T21:55:19.140Z,8.35
2019-02-24T21:57:48.739Z,8.28
2019-02-24T22:00:19.472Z,8.22
2019-02-24T22:02:48.875Z,8.14
2019-02-24T22:05:18.319Z,8.08
2019-02-24T22:07:47.123Z,8.02
2019-02-24T22:10:16.529Z,7.96
2019-02-24T22:12:45.333Z,7.91
2019-02-24T22:15:16.523Z,7.86
2019-02-24T22:17:45.312Z,7.82
2019-02-24T22:20:14.980Z,7.76
2019-02-24T22:22:43.767Z,7.71
2019-02-24T22:25:12.611Z,7.67
2019-02-24T22:27:41.430Z,7.64
2019-02-24T22:30:13.489Z,7.58
2019-02-24T22:32:43.054Z,7.54
2019-02-24T22:35:11.914Z,7.49
2019-02-24T22:37:40.698Z,7.43
2019-02-24T22:40:11.918Z,7.38
2019-02-24T22:42:41.915Z,7.34
2019-02-24T22:45:13.187Z,7.29
2019-02-24T22:47:44.155Z,7.24
2019-02-24T22:50:15.967Z,7.22
2019-02-24T22:52:46.419Z,7.24
2019-02-24T22:55:17.445Z,7.28
2019-02-24T22:57:46.577Z,7.38
2019-02-24T23:00:26.667Z,7.49
2019-02-24T23:02:55.450Z,7.62
2019-02-24T23:05:24.357Z,7.60
2019-02-24T23:07:53.195Z,7.50
2019-02-24T23:10:22.772Z,7.38
2019-02-24T23:12:53.386Z,7.29
2019-02-24T23:15:23.040Z,7.22
2019-02-24T23:17:51.824Z,7.11
2019-02-24T23:20:20.635Z,7.04
2019-02-24T23:22:49.587Z,6.95
2019-02-24T23:25:19.145Z,6.89
2019-02-24T23:27:47.951Z,6.82
2019-02-24T23:30:16.791Z,6.75
2019-02-24T23:32:45.592Z,6.71
2019-02-24T23:35:14.456Z,6.65
2019-02-24T23:37:43.255Z,6.60
2019-02-24T23:40:12.132Z,6.55
2019-02-24T23:42:40.903Z,6.51
2019-02-24T23:45:10.684Z,6.52
2019-02-24T23:47:38.536Z,6.54
2019-02-24T23:50:07.400Z,6.52
2019-02-24T23:52:36.200Z,6.46
2019-02-24T23:55:06.154Z,6.39
2019-02-24T23:57:35.139Z,6.32
